createdAt,value
2023-05-10T00:00:19.855Z,3.90
2023-05-10T00:01:19.919Z,4.10
2023-05-10T00:02:19.892Z,5.60
2023-05-10T00:03:19.918Z,4.40
2023-05-10T00:04:19.870Z,5.70
2023-05-10T00:05:19.789Z,5.20
2023-05-10T00:06:19.782Z,4.90
2023-05-10T00:07:19.775Z,4.00
2023-05-10T00:08:19.783Z,5.40
2023-05-10T00:09:19.738Z,5.70
2023-05-10T00:10:19.720Z,5.80
2023-05-10T00:11:21.623Z,5.50
2023-05-10T00:12:19.715Z,4.70
2023-05-10T00:13:19.730Z,6.60
2023-05-10T00:14:19.726Z,5.00
2023-05-10T00:15:19.659Z,5.50
2023-05-10T00:16:19.680Z,6.60
2023-05-10T00:17:19.634Z,5.30
2023-05-10T00:18:19.663Z,5.90
2023-05-10T00:19:19.659Z,7.30
2023-05-10T00:20:19.752Z,5.20
2023-05-10T00:21:19.575Z,4.70
2023-05-10T00:22:19.564Z,4.30
2023-05-10T00:23:19.550Z,5.80
2023-05-10T00:24:19.556Z,6.40
2023-05-10T00:25:19.571Z,6.60
2023-05-10T00:26:19.515Z,5.90
2023-05-10T00:27:19.504Z,7.90
2023-05-10T00:28:19.502Z,7.50
2023-05-10T00:29:19.471Z,7.30
2023-05-10T00:30:19.518Z,7.70
2023-05-10T00:31:19.449Z,9.90
2023-05-10T00:32:19.514Z,8.60
2023-05-10T00:33:19.434Z,7.90
2023-05-10T00:34:19.404Z,6.00
2023-05-10T00:35:19.414Z,8.10
2023-05-10T00:36:19.411Z,7.90
2023-05-10T00:37:19.388Z,5.50
2023-05-10T00:38:19.359Z,6.70
2023-05-10T00:39:19.350Z,9.10
2023-05-10T00:40:19.491Z,7.30
2023-05-10T00:41:19.320Z,8.80
2023-05-10T00:42:19.325Z,8.00
2023-05-10T00:43:19.316Z,7.20
2023-05-10T00:44:19.295Z,6.90
2023-05-10T00:45:19.283Z,8.80
2023-05-10T00:46:19.384Z,7.80
2023-05-10T00:47:19.283Z,6.80
2023-05-10T00:48:19.265Z,7.00
2023-05-10T00:49:19.233Z,7.20
2023-05-10T00:50:19.301Z,10.50
2023-05-10T00:51:19.206Z,7.60
2023-05-10T00:52:19.208Z,7.20
2023-05-10T00:53:19.175Z,7.10
2023-05-10T00:54:19.197Z,8.20
2023-05-10T00:55:19.156Z,8.00
2023-05-10T00:56:19.142Z,9.70
2023-05-10T00:57:19.119Z,10.20
2023-05-10T00:58:19.139Z,8.70
2023-05-10T00:59:19.127Z,9.50
2023-05-10T01:00:19.104Z,11.30
2023-05-10T01:01:19.103Z,12.80
2023-05-10T01:02:19.105Z,10.80
2023-05-10T01:03:19.179Z,8.50
2023-05-10T01:04:19.086Z,10.20
2023-05-10T01:05:19.188Z,13.20
2023-05-10T01:06:19.007Z,9.10
2023-05-10T01:07:19.012Z,10.00
2023-05-10T01:08:18.993Z,11.70
2023-05-10T01:09:18.963Z,9.30
2023-05-10T01:10:19.103Z,11.20
2023-05-10T01:11:18.930Z,10.00
2023-05-10T01:12:18.941Z,9.90
2023-05-10T01:13:18.950Z,11.10
2023-05-10T01:14:18.942Z,14.50
2023-05-10T01:15:18.879Z,9.60
2023-05-10T01:16:18.959Z,10.00
2023-05-10T01:17:18.871Z,11.50
2023-05-10T01:18:18.853Z,12.00
2023-05-10T01:19:18.828Z,10.80
2023-05-10T01:20:19.152Z,13.90
2023-05-10T01:21:18.841Z,11.40
2023-05-10T01:22:18.801Z,18.60
2023-05-10T01:23:18.783Z,15.50
2023-05-10T01:24:18.772Z,18.20
2023-05-10T01:25:18.766Z,12.20
2023-05-10T01:26:18.752Z,12.70
2023-05-10T01:27:18.774Z,14.40
2023-05-10T01:28:18.723Z,16.70
2023-05-10T01:29:18.720Z,14.10
2023-05-10T01:30:18.691Z,14.70
2023-05-10T01:31:18.733Z,12.30
2023-05-10T01:32:18.709Z,11.70
2023-05-10T01:33:18.688Z,10.30
2023-05-10T01:34:18.652Z,9.50
2023-05-10T01:35:18.659Z,13.00
2023-05-10T01:36:18.640Z,10.60
2023-05-10T01:37:18.625Z,10.60
2023-05-10T01:38:18.619Z,13.50
2023-05-10T01:39:18.584Z,13.20
2023-05-10T01:40:18.557Z,11.60
2023-05-10T01:41:18.564Z,12.30
2023-05-10T01:42:18.565Z,11.50
2023-05-10T01:43:18.531Z,11.30
2023-05-10T01:44:18.516Z,11.60
2023-05-10T01:45:18.512Z,11.30
2023-05-10T01:46:18.523Z,13.00
2023-05-10T01:47:18.679Z,12.10
2023-05-10T01:48:18.463Z,10.20
2023-05-10T01:49:18.450Z,12.20
2023-05-10T01:50:18.820Z,17.80
2023-05-10T01:51:18.420Z,14.00
2023-05-10T01:52:18.413Z,14.00
2023-05-10T01:53:18.423Z,12.90
2023-05-10T01:54:18.387Z,14.10
2023-05-10T01:55:18.372Z,13.50
2023-05-10T01:56:18.346Z,14.80
2023-05-10T01:57:18.360Z,14.70
2023-05-10T01:58:18.535Z,15.60
2023-05-10T01:59:18.349Z,15.10
2023-05-10T02:00:18.459Z,17.00
2023-05-10T02:01:18.392Z,15.80
2023-05-10T02:02:18.284Z,16.60
2023-05-10T02:03:18.407Z,15.30
2023-05-10T02:04:18.280Z,13.70
2023-05-10T02:05:18.265Z,14.40
2023-05-10T02:06:18.248Z,15.30
2023-05-10T02:07:18.238Z,17.00
2023-05-10T02:08:18.221Z,11.50
2023-05-10T02:09:18.213Z,14.20
2023-05-10T02:10:18.355Z,11.30
2023-05-10T02:11:18.203Z,11.30
2023-05-10T02:12:18.157Z,14.10
2023-05-10T02:13:18.210Z,14.30
2023-05-10T02:14:18.126Z,20.10
2023-05-10T02:15:18.318Z,20.90
2023-05-10T02:16:18.132Z,25.10
2023-05-10T02:17:18.097Z,17.40
2023-05-10T02:18:18.126Z,16.50
2023-05-10T02:19:18.077Z,17.70
2023-05-10T02:20:18.294Z,15.70
2023-05-10T02:21:18.042Z,12.30
2023-05-10T02:22:18.052Z,11.80
2023-05-10T02:23:18.030Z,16.50
2023-05-10T02:24:18.000Z,14.30
2023-05-10T02:25:18.014Z,19.40
2023-05-10T02:26:17.978Z,17.60
2023-05-10T02:27:17.969Z,14.10
2023-05-10T02:28:17.948Z,12.50
2023-05-10T02:29:17.975Z,14.80
2023-05-10T02:30:18.104Z,12.30
2023-05-10T02:31:17.900Z,14.10
2023-05-10T02:32:18.103Z,14.80
2023-05-10T02:33:17.883Z,13.60
2023-05-10T02:34:17.890Z,16.80
2023-05-10T02:35:17.859Z,14.50
2023-05-10T02:36:17.841Z,16.30
2023-05-10T02:37:17.873Z,13.90
2023-05-10T02:38:17.832Z,12.50
2023-05-10T02:39:17.828Z,14.00
2023-05-10T02:40:18.192Z,12.70
2023-05-10T02:41:17.790Z,14.20
2023-05-10T02:42:17.790Z,13.70
2023-05-10T02:43:17.754Z,12.30
2023-05-10T02:44:17.776Z,14.50
2023-05-10T02:45:17.737Z,15.60
2023-05-10T02:46:17.802Z,13.80
2023-05-10T02:47:17.712Z,18.50
2023-05-10T02:48:17.683Z,15.10
2023-05-10T02:49:17.745Z,15.50
2023-05-10T02:50:17.879Z,11.60
2023-05-10T02:51:17.648Z,14.10
2023-05-10T02:52:17.664Z,11.20
2023-05-10T02:53:17.659Z,15.50
2023-05-10T02:54:17.694Z,16.90
2023-05-10T02:55:17.604Z,15.10
2023-05-10T02:56:17.641Z,13.70
2023-05-10T02:57:17.582Z,17.20
2023-05-10T02:58:17.577Z,14.60
2023-05-10T02:59:17.752Z,15.00
2023-05-10T03:00:17.764Z,13.30
2023-05-10T03:01:17.554Z,15.80
2023-05-10T03:02:17.573Z,15.00
2023-05-10T03:03:17.515Z,16.10
2023-05-10T03:04:17.526Z,13.00
2023-05-10T03:05:17.480Z,11.40
2023-05-10T03:06:17.522Z,14.20
2023-05-10T03:07:17.986Z,12.70
2023-05-10T03:08:17.455Z,12.30
2023-05-10T03:09:17.421Z,14.50
2023-05-10T03:10:17.671Z,15.80
2023-05-10T03:11:17.440Z,14.30
2023-05-10T03:12:17.398Z,13.20
2023-05-10T03:13:17.421Z,12.60
2023-05-10T03:14:17.397Z,15.20
2023-05-10T03:15:17.353Z,15.30
2023-05-10T03:16:17.389Z,15.70
2023-05-10T03:17:17.314Z,11.70
2023-05-10T03:18:17.310Z,13.50
2023-05-10T03:19:17.307Z,15.50
2023-05-10T03:20:17.559Z,14.80
2023-05-10T03:21:17.263Z,14.30
2023-05-10T03:22:17.282Z,15.00
2023-05-10T03:23:17.245Z,16.60
2023-05-10T03:24:17.259Z,15.40
2023-05-10T03:25:17.235Z,13.10
2023-05-10T03:26:17.202Z,13.60
2023-05-10T03:27:17.241Z,12.90
2023-05-10T03:28:17.230Z,14.20
2023-05-10T03:29:17.174Z,14.70
2023-05-10T03:30:17.410Z,13.40
2023-05-10T03:31:17.179Z,18.40
2023-05-10T03:32:17.142Z,14.40
2023-05-10T03:33:17.141Z,15.00
2023-05-10T03:34:17.134Z,14.20
2023-05-10T03:35:17.157Z,13.10
2023-05-10T03:36:17.166Z,15.00
2023-05-10T03:37:17.068Z,12.00
2023-05-10T03:38:17.064Z,16.40
2023-05-10T03:39:17.037Z,16.30
2023-05-10T03:40:17.272Z,18.40
2023-05-10T03:41:17.011Z,16.60
2023-05-10T03:42:17.034Z,18.10
2023-05-10T03:43:17.009Z,14.10
2023-05-10T03:44:16.971Z,15.70
2023-05-10T03:45:16.977Z,17.60
2023-05-10T03:46:17.028Z,16.90
2023-05-10T03:47:17.014Z,16.30
2023-05-10T03:48:16.924Z,16.80
2023-05-10T03:49:16.918Z,15.50
2023-05-10T03:50:17.185Z,19.60
2023-05-10T03:51:16.891Z,18.70
2023-05-10T03:52:16.962Z,16.10
2023-05-10T03:53:17.004Z,17.40
2023-05-10T03:54:16.874Z,16.40
2023-05-10T03:55:16.915Z,17.80
2023-05-10T03:56:16.887Z,20.40
2023-05-10T03:57:16.807Z,19.00
2023-05-10T03:58:16.821Z,22.40
2023-05-10T03:59:16.769Z,19.60
2023-05-10T04:00:17.044Z,21.50
2023-05-10T04:01:16.807Z,20.20
2023-05-10T04:02:16.765Z,20.70
2023-05-10T04:03:16.862Z,22.10
2023-05-10T04:04:16.792Z,19.90
2023-05-10T04:05:16.748Z,20.80
2023-05-10T04:06:16.710Z,23.80
2023-05-10T04:07:16.670Z,24.40
2023-05-10T04:08:16.700Z,22.90
2023-05-10T04:09:16.653Z,25.70
2023-05-10T04:10:16.810Z,29.20
2023-05-10T04:11:16.670Z,24.40
2023-05-10T04:12:16.645Z,27.00
2023-05-10T04:13:16.684Z,28.20
2023-05-10T04:14:16.577Z,27.00
2023-05-10T04:15:16.573Z,25.50
2023-05-10T04:16:16.597Z,24.10
2023-05-10T04:17:16.575Z,24.40
2023-05-10T04:18:16.552Z,21.30
2023-05-10T04:19:16.544Z,28.20
2023-05-10T04:20:16.711Z,24.10
2023-05-10T04:21:16.488Z,26.20
2023-05-10T04:22:16.470Z,26.50
2023-05-10T04:23:16.456Z,29.70
2023-05-10T04:24:16.508Z,26.00
2023-05-10T04:25:16.443Z,23.20
2023-05-10T04:26:16.440Z,27.90
2023-05-10T04:27:16.440Z,26.10
2023-05-10T04:28:16.393Z,25.20
2023-05-10T04:29:16.383Z,23.90
2023-05-10T04:30:16.565Z,22.90
2023-05-10T04:31:16.407Z,26.80
2023-05-10T04:32:16.401Z,24.20
2023-05-10T04:33:16.332Z,26.30
2023-05-10T04:34:16.393Z,27.70
2023-05-10T04:35:16.351Z,26.50
2023-05-10T04:36:16.327Z,27.10
2023-05-10T04:37:16.283Z,26.60
2023-05-10T04:38:16.270Z,26.40
2023-05-10T04:39:16.264Z,26.30
2023-05-10T04:40:16.460Z,24.90
2023-05-10T04:41:16.223Z,28.70
2023-05-10T04:42:16.219Z,28.60
2023-05-10T04:43:16.216Z,29.20
2023-05-10T04:44:16.235Z,29.30
2023-05-10T04:45:16.186Z,28.10
2023-05-10T04:46:16.194Z,29.00
2023-05-10T04:47:16.148Z,27.30
2023-05-10T04:48:16.145Z,42.10
2023-05-10T04:49:16.137Z,48.00
2023-05-10T04:50:16.335Z,55.80
2023-05-10T04:51:16.088Z,50.70
2023-05-10T04:52:16.087Z,42.80
2023-05-10T04:53:16.112Z,36.70
2023-05-10T04:54:16.049Z,38.90
2023-05-10T04:55:16.174Z,36.80
2023-05-10T04:56:16.039Z,30.70
2023-05-10T04:57:16.035Z,34.50
2023-05-10T04:58:16.007Z,35.30
2023-05-10T04:59:15.990Z,35.40
2023-05-10T05:00:16.154Z,32.60
2023-05-10T05:01:16.021Z,33.90
2023-05-10T05:02:15.947Z,36.10
2023-05-10T05:03:16.040Z,33.70
2023-05-10T05:04:15.926Z,30.70
2023-05-10T05:05:15.921Z,31.00
2023-05-10T05:06:16.118Z,31.20
2023-05-10T05:07:15.890Z,36.10
2023-05-10T05:08:15.877Z,37.10
2023-05-10T05:09:15.858Z,37.00
2023-05-10T05:10:16.100Z,34.80
2023-05-10T05:11:15.845Z,33.50
2023-05-10T05:12:15.850Z,40.50
2023-05-10T05:13:15.839Z,40.90
2023-05-10T05:14:15.811Z,43.30
2023-05-10T05:15:15.780Z,43.60
2023-05-10T05:16:15.788Z,51.50
2023-05-10T05:17:15.788Z,44.20
2023-05-10T05:18:15.760Z,36.10
2023-05-10T05:19:15.732Z,37.80
2023-05-10T05:20:15.931Z,30.90
2023-05-10T05:21:15.708Z,36.90
2023-05-10T05:22:18.345Z,38.30
2023-05-10T05:23:15.722Z,43.40
2023-05-10T05:24:15.658Z,36.90
2023-05-10T05:25:15.651Z,37.30
2023-05-10T05:26:15.652Z,40.20
2023-05-10T05:27:15.650Z,36.10
2023-05-10T05:28:15.630Z,37.60
2023-05-10T05:29:15.600Z,38.60
2023-05-10T05:30:15.868Z,36.00
2023-05-10T05:31:15.597Z,42.70
2023-05-10T05:32:15.569Z,40.80
2023-05-10T05:33:15.570Z,41.20
2023-05-10T05:34:15.543Z,41.20
2023-05-10T05:35:15.809Z,40.20
2023-05-10T05:36:15.515Z,36.70
2023-05-10T05:37:15.529Z,35.70
2023-05-10T05:38:15.502Z,41.40
2023-05-10T05:39:15.498Z,41.80
2023-05-10T05:40:15.477Z,39.60
2023-05-10T05:41:15.436Z,43.40
2023-05-10T05:42:15.415Z,38.90
2023-05-10T05:43:15.423Z,43.30
2023-05-10T05:44:15.422Z,44.70
2023-05-10T05:45:15.486Z,40.20
2023-05-10T05:46:15.392Z,42.30
2023-05-10T05:47:15.420Z,40.10
2023-05-10T05:48:15.352Z,41.40
2023-05-10T05:49:15.380Z,46.50
2023-05-10T05:50:15.320Z,44.10
2023-05-10T05:51:15.314Z,42.30
2023-05-10T05:52:15.298Z,46.70
2023-05-10T05:53:15.295Z,42.30
2023-05-10T05:54:15.313Z,45.50
2023-05-10T05:55:15.613Z,46.70
2023-05-10T05:56:15.241Z,42.10
2023-05-10T05:57:15.230Z,42.00
2023-05-10T05:58:15.215Z,41.60
2023-05-10T05:59:15.229Z,46.50
2023-05-10T06:00:15.272Z,44.20
2023-05-10T06:01:15.177Z,40.60
2023-05-10T06:02:15.220Z,44.10
2023-05-10T06:03:15.223Z,51.40
2023-05-10T06:04:15.182Z,48.40
2023-05-10T06:05:15.545Z,44.30
2023-05-10T06:06:15.100Z,45.00
2023-05-10T06:07:15.101Z,43.10
2023-05-10T06:08:15.083Z,52.70
2023-05-10T06:09:15.134Z,46.40
2023-05-10T06:10:15.101Z,42.80
2023-05-10T06:11:15.069Z,49.60
2023-05-10T06:12:15.065Z,44.50
2023-05-10T06:13:15.084Z,43.60
2023-05-10T06:14:15.022Z,44.30
2023-05-10T06:15:15.196Z,53.30
2023-05-10T06:16:15.019Z,48.70
2023-05-10T06:17:15.006Z,41.20
2023-05-10T06:18:15.000Z,43.00
2023-05-10T06:19:14.944Z,45.40
2023-05-10T06:20:14.934Z,45.60
2023-05-10T06:21:14.952Z,42.80
2023-05-10T06:22:14.914Z,51.30
2023-05-10T06:23:14.932Z,45.00
2023-05-10T06:24:14.893Z,46.00
2023-05-10T06:25:14.974Z,43.40
2023-05-10T06:26:14.849Z,42.60
2023-05-10T06:27:14.832Z,44.90
2023-05-10T06:28:14.848Z,52.00
2023-05-10T06:29:14.820Z,45.60
2023-05-10T06:30:14.797Z,41.40
2023-05-10T06:31:14.865Z,42.60
2023-05-10T06:32:14.816Z,40.90
2023-05-10T06:33:14.749Z,41.90
2023-05-10T06:34:14.772Z,44.80
2023-05-10T06:35:14.818Z,45.10
2023-05-10T06:36:14.715Z,44.40
2023-05-10T06:37:14.717Z,42.60
2023-05-10T06:38:14.698Z,42.40
2023-05-10T06:39:14.681Z,40.60
2023-05-10T06:40:14.702Z,41.70
2023-05-10T06:41:14.680Z,40.80
2023-05-10T06:42:14.640Z,38.80
2023-05-10T06:43:14.646Z,41.00
2023-05-10T06:44:14.609Z,46.90
2023-05-10T06:45:14.696Z,43.50
2023-05-10T06:46:14.639Z,47.50
2023-05-10T06:47:14.570Z,48.20
2023-05-10T06:48:14.592Z,46.30
2023-05-10T06:49:14.555Z,48.60
2023-05-10T06:50:14.573Z,47.00
2023-05-10T06:51:14.523Z,47.40
2023-05-10T06:52:14.504Z,43.70
2023-05-10T06:53:14.505Z,46.40
2023-05-10T06:54:14.522Z,43.30
2023-05-10T06:55:14.632Z,46.60
2023-05-10T06:56:14.488Z,49.00
2023-05-10T06:57:27.688Z,40.50
2023-05-10T06:58:15.426Z,45.00
2023-05-10T06:59:14.587Z,44.80
2023-05-10T07:00:14.818Z,41.50
2023-05-10T07:01:14.583Z,42.20
2023-05-10T07:02:14.560Z,44.30
2023-05-10T07:03:14.425Z,44.50
2023-05-10T07:04:14.391Z,47.00
2023-05-10T07:05:14.340Z,42.20
2023-05-10T07:06:29.546Z,45.60
2023-05-10T07:07:15.369Z,42.80
2023-05-10T07:08:14.342Z,51.20
2023-05-10T07:09:14.299Z,45.00
2023-05-10T07:10:14.302Z,45.60
2023-05-10T07:11:14.269Z,43.10
2023-05-10T07:12:15.528Z,52.40
2023-05-10T07:13:14.428Z,43.20
2023-05-10T07:14:14.212Z,44.20
2023-05-10T07:15:14.356Z,46.50
2023-05-10T07:16:14.210Z,43.90
2023-05-10T07:17:14.248Z,40.60
2023-05-10T07:18:14.190Z,42.30
2023-05-10T07:19:14.160Z,39.90
2023-05-10T07:20:14.145Z,42.10
2023-05-10T07:21:14.175Z,43.40
2023-05-10T07:22:14.180Z,39.10
2023-05-10T07:23:14.140Z,38.50
2023-05-10T07:24:14.099Z,39.20
2023-05-10T07:25:14.182Z,42.60
2023-05-10T07:26:14.080Z,38.90
2023-05-10T07:27:14.112Z,39.30
2023-05-10T07:28:14.094Z,35.20
2023-05-10T07:29:14.080Z,39.60
2023-05-10T07:30:14.026Z,39.10
2023-05-10T07:31:14.008Z,45.70
2023-05-10T07:32:14.043Z,38.20
2023-05-10T07:33:14.041Z,36.40
2023-05-10T07:34:13.975Z,39.70
2023-05-10T07:35:14.130Z,40.70
2023-05-10T07:36:13.943Z,44.40
2023-05-10T07:37:13.937Z,40.40
2023-05-10T07:38:13.943Z,45.00
2023-05-10T07:39:18.648Z,44.40
2023-05-10T07:40:14.919Z,43.30
2023-05-10T07:41:13.882Z,42.00
2023-05-10T07:42:13.863Z,42.90
2023-05-10T07:43:13.860Z,36.60
2023-05-10T07:44:13.872Z,48.90
2023-05-10T07:45:13.920Z,38.20
2023-05-10T07:46:13.886Z,42.40
2023-05-10T07:47:13.800Z,43.90
2023-05-10T07:48:13.787Z,42.20
2023-05-10T07:49:13.788Z,39.50
2023-05-10T07:50:13.763Z,50.30
2023-05-10T07:51:13.789Z,42.40
2023-05-10T07:52:13.973Z,48.50
2023-05-10T07:53:13.725Z,46.50
2023-05-10T07:54:13.734Z,43.00
2023-05-10T07:55:13.804Z,43.00
2023-05-10T07:56:13.784Z,40.50
2023-05-10T07:57:13.690Z,43.30
2023-05-10T07:58:13.667Z,41.80
2023-05-10T07:59:13.652Z,43.80
2023-05-10T08:00:13.661Z,41.30
2023-05-10T08:01:13.855Z,43.80
2023-05-10T08:02:13.679Z,42.00
2023-05-10T08:03:13.848Z,41.60
2023-05-10T08:04:13.666Z,43.60
2023-05-10T08:05:13.653Z,38.90
2023-05-10T08:06:13.558Z,41.80
2023-05-10T08:07:13.593Z,41.70
2023-05-10T08:08:13.520Z,47.90
2023-05-10T08:09:13.515Z,40.10
2023-05-10T08:10:13.501Z,40.80
2023-05-10T08:11:13.507Z,38.60
2023-05-10T08:12:13.528Z,44.10
2023-05-10T08:13:13.470Z,39.20
2023-05-10T08:14:13.449Z,43.50
2023-05-10T08:15:13.468Z,44.30
2023-05-10T08:16:13.498Z,40.80
2023-05-10T08:17:13.454Z,43.60
2023-05-10T08:18:13.495Z,42.70
2023-05-10T08:19:13.400Z,47.80
2023-05-10T08:20:13.401Z,42.70
2023-05-10T08:21:13.398Z,46.20
2023-05-10T08:22:13.365Z,46.20
2023-05-10T08:23:13.350Z,46.00
2023-05-10T08:24:13.330Z,40.20
2023-05-10T08:25:13.349Z,41.50
2023-05-10T08:26:13.310Z,41.50
2023-05-10T08:27:13.291Z,45.80
2023-05-10T08:28:13.305Z,38.60
2023-05-10T08:29:13.263Z,38.70
2023-05-10T08:30:13.283Z,34.70
2023-05-10T08:31:13.263Z,36.80
2023-05-10T08:32:13.212Z,44.10
2023-05-10T08:33:13.289Z,35.20
2023-05-10T08:34:13.212Z,37.00
2023-05-10T08:35:13.212Z,40.30
2023-05-10T08:36:13.172Z,40.20
2023-05-10T08:37:13.159Z,38.10
2023-05-10T08:38:13.173Z,43.70
2023-05-10T08:39:19.481Z,39.60
2023-05-10T08:40:14.134Z,39.90
2023-05-10T08:41:13.137Z,39.10
2023-05-10T08:42:13.093Z,40.50
2023-05-10T08:43:13.089Z,39.00
2023-05-10T08:44:13.085Z,38.70
2023-05-10T08:45:13.068Z,40.20
2023-05-10T08:46:13.075Z,29.40
2023-05-10T08:47:13.124Z,33.80
2023-05-10T08:48:13.009Z,38.10
2023-05-10T08:49:13.024Z,37.90
2023-05-10T08:50:12.995Z,36.60
2023-05-10T08:51:12.977Z,36.60
2023-05-10T08:52:12.977Z,34.60
2023-05-10T08:53:12.979Z,38.70
2023-05-10T08:54:12.946Z,34.30
2023-05-10T08:55:12.948Z,32.50
2023-05-10T08:56:12.913Z,36.60
2023-05-10T08:57:12.923Z,31.30
2023-05-10T08:58:12.887Z,28.30
2023-05-10T08:59:12.878Z,32.90
2023-05-10T09:00:12.847Z,26.00
2023-05-10T09:01:12.899Z,28.00
2023-05-10T09:02:12.842Z,25.20
2023-05-10T09:03:12.824Z,21.30
2023-05-10T09:04:12.923Z,20.00
2023-05-10T09:05:12.841Z,20.70
2023-05-10T09:06:12.961Z,25.10
2023-05-10T09:07:12.782Z,22.20
2023-05-10T09:08:12.762Z,21.80
2023-05-10T09:09:12.743Z,20.50
2023-05-10T09:10:12.720Z,23.50
2023-05-10T09:11:12.727Z,21.90
2023-05-10T09:12:12.721Z,20.90
2023-05-10T09:13:12.905Z,21.50
2023-05-10T09:14:12.684Z,18.70
2023-05-10T09:15:12.656Z,21.00
2023-05-10T09:16:21.110Z,19.10
2023-05-10T09:17:13.712Z,20.10
2023-05-10T09:18:12.650Z,20.40
2023-05-10T09:19:12.779Z,18.60
2023-05-10T09:20:12.593Z,18.70
2023-05-10T09:21:12.591Z,21.30
2023-05-10T09:22:12.581Z,20.50
2023-05-10T09:23:12.603Z,22.90
2023-05-10T09:24:12.534Z,20.40
2023-05-10T09:25:12.543Z,15.90
2023-05-10T09:26:12.518Z,17.20
2023-05-10T09:27:12.496Z,20.50
2023-05-10T09:28:12.567Z,21.90
2023-05-10T09:29:12.477Z,14.30
2023-05-10T09:30:12.452Z,18.80
2023-05-10T09:31:12.475Z,18.90
2023-05-10T09:32:13.828Z,19.00
2023-05-10T09:33:12.408Z,16.00
2023-05-10T09:34:12.423Z,18.50
2023-05-10T09:35:12.393Z,16.50
2023-05-10T09:36:12.377Z,15.90
2023-05-10T09:37:12.393Z,15.20
2023-05-10T09:38:12.346Z,16.00
2023-05-10T09:39:12.349Z,15.60
2023-05-10T09:40:12.327Z,20.20
2023-05-10T09:41:12.329Z,21.40
2023-05-10T09:42:12.300Z,21.10
2023-05-10T09:43:12.287Z,15.80
2023-05-10T09:44:12.253Z,18.40
2023-05-10T09:45:12.271Z,16.60
2023-05-10T09:46:12.314Z,18.50
2023-05-10T09:47:12.237Z,18.00
2023-05-10T09:48:12.255Z,17.80
2023-05-10T09:49:12.204Z,18.90
2023-05-10T09:50:12.245Z,18.50
2023-05-10T09:51:12.185Z,18.20
2023-05-10T09:52:12.156Z,19.40
2023-05-10T09:53:12.152Z,18.70
2023-05-10T09:54:12.134Z,22.20
2023-05-10T09:55:12.118Z,18.50
2023-05-10T09:56:12.120Z,21.80
2023-05-10T09:57:12.081Z,23.30
2023-05-10T09:58:12.117Z,19.90
2023-05-10T09:59:12.081Z,21.40
2023-05-10T10:00:12.048Z,21.50
2023-05-10T10:01:12.035Z,23.50
2023-05-10T10:02:12.082Z,19.20
2023-05-10T10:03:12.039Z,20.20
2023-05-10T10:04:12.013Z,17.40
2023-05-10T10:05:12.065Z,19.20
2023-05-10T10:06:26.430Z,20.90
2023-05-10T10:07:13.033Z,23.30
2023-05-10T10:08:11.944Z,23.90
2023-05-10T10:09:11.937Z,23.40
2023-05-10T10:10:11.939Z,21.30
2023-05-10T10:11:11.901Z,23.10
2023-05-10T10:12:11.917Z,22.20
2023-05-10T10:13:11.861Z,20.80
2023-05-10T10:14:11.856Z,17.90
2023-05-10T10:15:11.859Z,20.60
2023-05-10T10:16:11.975Z,29.10
2023-05-10T10:17:11.823Z,23.00
2023-05-10T10:18:11.801Z,24.90
2023-05-10T10:19:11.875Z,25.80
2023-05-10T10:20:12.323Z,30.40
2023-05-10T10:21:11.784Z,25.80
2023-05-10T10:22:11.760Z,31.10
2023-05-10T10:23:11.740Z,25.00
2023-05-10T10:24:11.713Z,25.50
2023-05-10T10:25:11.743Z,32.60
2023-05-10T10:26:11.715Z,25.80
2023-05-10T10:27:11.707Z,26.80
2023-05-10T10:28:11.668Z,27.80
2023-05-10T10:29:11.709Z,26.20
2023-05-10T10:30:11.644Z,30.60
2023-05-10T10:31:11.700Z,29.10
2023-05-10T10:32:11.608Z,25.80
2023-05-10T10:33:20.553Z,29.70
2023-05-10T10:34:12.593Z,23.20
2023-05-10T10:35:11.574Z,24.10
2023-05-10T10:36:11.578Z,22.20
2023-05-10T10:37:11.544Z,25.70
2023-05-10T10:38:11.523Z,23.90
2023-05-10T10:39:11.580Z,25.00
2023-05-10T10:40:11.533Z,21.00
2023-05-10T10:41:11.485Z,22.80
2023-05-10T10:42:11.503Z,23.10
2023-05-10T10:43:11.452Z,19.90
2023-05-10T10:44:11.438Z,19.70
2023-05-10T10:45:11.449Z,21.00
2023-05-10T10:46:11.582Z,21.90
2023-05-10T10:47:11.479Z,18.10
2023-05-10T10:48:11.387Z,22.10
2023-05-10T10:49:11.385Z,20.40
2023-05-10T10:50:11.426Z,20.80
2023-05-10T10:51:12.909Z,18.10
2023-05-10T10:52:11.354Z,21.50
2023-05-10T10:53:11.390Z,14.90
2023-05-10T10:54:11.317Z,23.70
2023-05-10T10:55:11.338Z,21.70
2023-05-10T10:56:11.305Z,20.40
2023-05-10T10:57:11.345Z,20.40
2023-05-10T10:58:11.258Z,18.40
2023-05-10T10:59:11.388Z,19.90
2023-05-10T11:00:11.277Z,22.00
2023-05-10T11:01:11.305Z,17.90
2023-05-10T11:02:11.212Z,19.80
2023-05-10T11:03:11.274Z,17.00
2023-05-10T11:04:11.287Z,16.90
2023-05-10T11:05:11.176Z,20.10
2023-05-10T11:06:11.170Z,23.60
2023-05-10T11:07:11.155Z,19.60
2023-05-10T11:08:11.130Z,22.30
2023-05-10T11:09:11.102Z,20.20
2023-05-10T11:10:11.110Z,21.60
2023-05-10T11:11:11.155Z,21.40
2023-05-10T11:12:11.062Z,20.50
2023-05-10T11:13:11.058Z,19.40
2023-05-10T11:14:11.064Z,17.90
2023-05-10T11:15:11.047Z,21.60
2023-05-10T11:16:11.287Z,16.80
2023-05-10T11:17:11.075Z,24.80
2023-05-10T11:18:11.017Z,22.60
2023-05-10T11:19:11.007Z,22.40
2023-05-10T11:20:10.989Z,22.00
2023-05-10T11:21:10.953Z,18.30
2023-05-10T11:22:10.964Z,16.80
2023-05-10T11:23:10.919Z,18.20
2023-05-10T11:24:10.917Z,23.30
2023-05-10T11:25:10.891Z,21.20
2023-05-10T11:26:10.887Z,20.10
2023-05-10T11:27:10.875Z,20.80
2023-05-10T11:28:10.922Z,26.20
2023-05-10T11:29:10.847Z,27.40
2023-05-10T11:30:10.833Z,24.10
2023-05-10T11:31:10.838Z,22.90
2023-05-10T11:32:10.801Z,24.80
2023-05-10T11:33:10.940Z,19.60
2023-05-10T11:34:10.808Z,18.00
2023-05-10T11:35:10.768Z,18.10
2023-05-10T11:36:10.789Z,20.00
2023-05-10T11:37:10.746Z,20.40
2023-05-10T11:38:10.748Z,19.90
2023-05-10T11:39:10.734Z,23.80
2023-05-10T11:40:10.717Z,22.20
2023-05-10T11:41:10.699Z,17.00
2023-05-10T11:42:10.682Z,18.10
2023-05-10T11:43:10.665Z,21.50
2023-05-10T11:44:10.678Z,18.50
2023-05-10T11:45:10.654Z,17.90
2023-05-10T11:46:10.669Z,15.70
2023-05-10T11:47:10.603Z,19.30
2023-05-10T11:48:10.654Z,18.30
2023-05-10T11:49:10.613Z,19.20
2023-05-10T11:50:10.564Z,13.90
2023-05-10T11:51:10.580Z,19.40
2023-05-10T11:52:10.557Z,13.40
2023-05-10T11:53:10.529Z,16.60
2023-05-10T11:54:10.581Z,16.70
2023-05-10T11:55:10.527Z,17.10
2023-05-10T11:56:10.499Z,17.30
2023-05-10T11:57:10.498Z,17.20
2023-05-10T11:58:10.472Z,14.50
2023-05-10T11:59:10.449Z,19.90
2023-05-10T12:00:10.464Z,18.50
2023-05-10T12:01:10.442Z,14.90
2023-05-10T12:02:10.400Z,13.20
2023-05-10T12:03:10.540Z,18.00
2023-05-10T12:04:10.450Z,16.30
2023-05-10T12:05:10.403Z,17.50
2023-05-10T12:06:10.401Z,13.00
2023-05-10T12:07:10.341Z,15.60
2023-05-10T12:08:10.356Z,15.00
2023-05-10T12:09:10.385Z,14.20
2023-05-10T12:10:10.357Z,16.30
2023-05-10T12:11:10.298Z,15.90
2023-05-10T12:12:10.276Z,15.20
2023-05-10T12:13:10.261Z,17.50
2023-05-10T12:14:10.254Z,19.60
2023-05-10T12:15:10.238Z,14.90
2023-05-10T12:16:10.369Z,19.20
2023-05-10T12:17:10.211Z,15.50
2023-05-10T12:18:10.241Z,14.50
2023-05-10T12:19:10.274Z,11.80
2023-05-10T12:20:10.372Z,15.20
2023-05-10T12:21:10.179Z,20.90
2023-05-10T12:22:10.212Z,15.50
2023-05-10T12:23:10.136Z,15.60
2023-05-10T12:24:10.153Z,18.10
2023-05-10T12:25:10.119Z,18.50
2023-05-10T12:26:10.104Z,15.30
2023-05-10T12:27:10.088Z,16.00
2023-05-10T12:28:10.102Z,16.90
2023-05-10T12:29:10.104Z,16.20
2023-05-10T12:30:10.053Z,18.60
2023-05-10T12:31:10.100Z,16.10
2023-05-10T12:32:10.061Z,14.60
2023-05-10T12:33:10.071Z,18.60
2023-05-10T12:34:10.086Z,19.30
2023-05-10T12:35:09.996Z,15.40
2023-05-10T12:36:09.979Z,13.40
2023-05-10T12:37:09.986Z,15.20
2023-05-10T12:38:09.948Z,16.00
2023-05-10T12:39:09.921Z,13.30
2023-05-10T12:40:09.963Z,16.90
2023-05-10T12:41:09.936Z,16.20
2023-05-10T12:42:09.918Z,16.00
2023-05-10T12:43:09.876Z,14.30
2023-05-10T12:44:09.852Z,16.20
2023-05-10T12:45:09.859Z,15.20
2023-05-10T12:46:09.923Z,12.50
2023-05-10T12:47:09.856Z,12.90
2023-05-10T12:48:09.884Z,16.40
2023-05-10T12:49:10.058Z,15.00
2023-05-10T12:50:09.785Z,18.50
2023-05-10T12:51:09.824Z,13.00
2023-05-10T12:52:09.790Z,14.50
2023-05-10T12:53:09.750Z,12.90
2023-05-10T12:54:09.820Z,16.00